Time;durP1;ratioP1;P1;durP2;ratioP2;P2;SDS_P1;SDS_P2;PMS_P1;PMS_P2;Temp;Humidity;BMP_temperature;BMP_pressure;BME280_temperature;BME280_humidity;BME280_pressure;Samples;Min_cycle;Max_cycle;Signal;HPM_P1;HPM_P2
2022/12/05 00:01:39;;;;;;;14.23;6.85;;;16.70;78.20;;;18.24;42.28;99202.66;5021594;28;20385;-71
2022/12/05 00:04:08;;;;;;;9.35;7.35;;;16.70;78.00;;;18.30;42.42;99198.69;5026115;28;20556;-71
2022/12/05 00:06:35;;;;;;;12.05;8.02;;;16.70;78.10;;;18.33;42.33;99209.03;5027187;28;20049;-71
2022/12/05 00:09:01;;;;;;;8.82;7.32;;;16.70;78.50;;;18.33;42.77;99210.97;5008033;28;20067;-71
2022/12/05 00:11:30;;;;;;;11.82;7.85;;;16.70;78.90;;;18.28;42.63;99206.41;5025007;28;20052;-71
2022/12/05 00:13:58;;;;;;;12.20;7.10;;;16.70;78.40;;;18.31;42.55;99204.97;5009540;28;20045;-71
2022/12/05 00:16:25;;;;;;;10.45;7.55;;;16.80;78.30;;;18.32;42.34;99212.06;5013020;28;20507;-71
2022/12/05 00:18:51;;;;;;;9.38;7.10;;;16.70;78.20;;;18.30;42.07;99204.16;5008077;28;20482;-71
2022/12/05 00:21:26;;;;;;;8.13;6.53;;;16.80;78.10;;;18.33;42.62;99192.53;5021260;28;20046;-71
2022/12/05 00:23:53;;;;;;;8.93;6.72;;;16.70;78.50;;;18.34;42.60;99191.44;5023536;28;20046;-71
2022/12/05 00:26:19;;;;;;;8.40;6.38;;;16.70;78.70;;;18.35;42.47;99193.06;5009234;28;20048;-71
2022/12/05 00:28:46;;;;;;;10.07;6.90;;;16.70;78.80;;;18.37;42.24;99177.06;5024718;28;20413;-71
2022/12/05 00:31:15;;;;;;;11.23;7.55;;;16.70;78.50;;;18.40;42.01;99179.19;5010074;28;20480;-71
2022/12/05 00:33:42;;;;;;;10.38;6.57;;;16.70;78.30;;;18.38;42.29;99177.88;5025155;28;20037;-71
2022/12/05 00:36:12;;;;;;;11.60;7.75;;;16.80;78.30;;;18.37;42.47;99179.00;5006043;28;20050;-71
2022/12/05 00:38:38;;;;;;;10.73;6.60;;;16.90;78.20;;;18.39;42.39;99174.81;5022815;28;20099;-71
2022/12/05 00:41:13;;;;;;;10.88;6.88;;;16.80;78.40;;;18.44;42.43;99177.44;5023333;28;20055;-71
2022/12/05 00:43:39;;;;;;;10.07;6.70;;;16.80;79.00;;;18.43;42.50;99185.97;5009357;28;20146;-71
2022/12/05 00:46:09;;;;;;;11.07;7.47;;;16.80;78.70;;;18.44;42.27;99176.59;5026139;28;20045;-71
2022/12/05 00:48:35;;;;;;;7.28;6.03;;;16.80;78.50;;;18.40;42.17;99170.94;5022592;28;20041;-71
2022/12/05 00:51:15;;;;;;;8.32;5.75;;;16.80;78.20;;;18.39;42.22;99180.31;5025732;28;20041;-71
2022/12/05 00:53:42;;;;;;;12.75;6.78;;;16.80;78.10;;;18.35;42.33;99168.34;5022582;28;20045;-71
2022/12/05 00:56:11;;;;;;;8.73;6.68;;;16.80;78.70;;;18.40;42.62;99164.66;5020355;28;20390;-71
2022/12/05 00:58:37;;;;;;;9.93;7.30;;;16.80;78.80;;;18.44;42.47;99166.44;5027464;28;20405;-71
2022/12/05 01:01:17;;;;;;;8.65;7.05;;;16.70;78.90;;;18.43;42.24;99164.81;5028455;28;20049;-71
2022/12/05 01:03:44;;;;;;;11.98;7.57;;;16.80;78.60;;;18.45;42.20;99161.75;5029843;28;20065;-71
2022/12/05 01:06:11;;;;;;;8.43;6.28;;;16.80;78.40;;;18.42;42.17;99165.94;5030532;28;20068;-71
2022/12/05 01:08:37;;;;;;;10.98;6.95;;;16.80;78.30;;;18.40;42.45;99159.16;5028798;28;20489;-71
2022/12/05 01:11:04;;;;;;;7.50;5.88;;;16.80;78.40;;;18.44;42.22;99149.97;5027412;28;20037;-71
2022/12/05 01:13:31;;;;;;;7.50;6.30;;;16.70;78.60;;;18.47;42.28;99147.69;5009062;28;20080;-71
2022/12/05 01:15:57;;;;;;;10.98;6.57;;;16.70;78.90;;;18.47;41.94;99148.53;5026841;28;20044;-71
2022/12/05 01:18:23;;;;;;;8.20;6.40;;;16.80;78.60;;;18.46;42.05;99151.56;5010936;28;20121;-71
2022/12/05 01:20:50;;;;;;;11.25;7.25;;;16.80;78.40;;;18.44;42.17;99149.13;5026104;28;20045;-71
2022/12/05 01:23:16;;;;;;;9.35;6.47;;;16.80;78.20;;;18.48;41.81;99149.31;5012891;28;20528;-71
2022/12/05 01:25:44;;;;;;;10.60;7.03;;;16.90;78.20;;;18.40;42.35;99143.47;5028833;28;20049;-71
2022/12/05 01:28:10;;;;;;;8.60;5.68;;;16.80;78.60;;;18.50;42.44;99138.84;5028859;28;20041;-71
2022/12/05 01:30:42;;;;;;;12.98;8.07;;;16.90;78.70;;;18.50;42.29;99136.09;5027868;28;20033;-71
2022/12/05 01:33:08;;;;;;;9.52;7.05;;;16.80;78.90;;;18.51;42.15;99130.25;5012720;28;20049;-71
2022/12/05 01:35:36;;;;;;;10.45;6.22;;;16.90;78.40;;;18.48;42.05;99124.59;5028713;28;20053;-71
2022/12/05 01:38:02;;;;;;;9.23;7.05;;;16.80;78.20;;;18.42;42.09;99130.25;5025355;28;20077;-72
2022/12/05 01:40:28;;;;;;;10.05;6.85;;;16.80;78.20;;;18.40;41.95;99132.50;5028805;28;20041;-72
2022/12/05 01:42:54;;;;;;;11.13;6.05;;;16.80;78.20;;;18.48;42.21;99143.84;5027119;28;20516;-72
2022/12/05 01:45:38;;;;;;;7.90;6.28;;;16.80;78.70;;;18.48;42.58;99132.84;5028144;28;20055;-72
2022/12/05 01:48:10;;;;;;;8.57;6.68;;;16.80;79.00;;;18.46;42.29;99141.38;5027252;28;20096;-72
2022/12/05 01:50:36;;;;;;;9.50;6.82;;;16.80;78.70;;;18.47;42.26;99133.94;5031045;28;20091;-72
2022/12/05 01:53:02;;;;;;;7.97;6.05;;;16.80;78.50;;;18.50;41.78;99138.84;5032439;28;20339;-72
2022/12/05 01:55:29;;;;;;;8.52;5.70;;;16.90;78.40;;;18.48;42.01;99139.13;5028730;28;20037;-72
2022/12/05 01:57:55;;;;;;;8.48;5.85;;;16.90;78.20;;;18.45;42.28;99148.03;5029762;28;20079;-72
2022/12/05 02:00:21;;;;;;;8.88;6.50;;;16.80;79.20;;;18.48;42.40;99146.56;5026527;28;20037;-72
2022/12/05 02:03:07;;;;;;;7.88;6.30;;;16.80;78.90;;;18.48;42.54;99143.84;5028532;28;20037;-72
2022/12/05 02:05:35;;;;;;;7.68;5.75;;;16.80;79.00;;;18.49;42.34;99148.19;5013674;28;20065;-72
2022/12/05 02:08:08;;;;;;;8.55;5.97;;;16.90;78.60;;;18.48;42.20;99146.56;5011949;28;20308;-72
2022/12/05 02:10:50;;;;;;;8.10;6.13;;;17.00;78.10;;;18.48;42.01;99147.38;5028510;28;20382;-71
2022/12/05 02:13:55;;;;;;;17.27;6.90;;;17.00;77.80;;;18.48;42.44;99146.56;5011856;28;20473;-71
2022/12/05 02:16:33;;;;;;;8.63;6.05;;;16.90;78.20;;;18.48;42.45;99147.38;5022862;28;20064;-71
2022/12/05 02:19:16;;;;;;;7.68;5.55;;;16.90;78.60;;;18.44;42.41;99143.63;5023628;28;20193;-71
2022/12/05 02:22:03;;;;;;;9.38;6.20;;;16.90;78.80;;;18.44;42.17;99144.47;5024551;28;20669;-71
2022/12/05 02:25:09;;;;;;;7.03;5.72;;;16.90;78.20;;;18.48;42.11;99138.34;5028164;28;20037;-72
2022/12/05 02:27:48;;;;;;;6.93;6.10;;;16.90;78.20;;;18.44;42.30;99138.16;5027131;28;20103;-72
2022/12/05 02:30:19;;;;;;;7.97;6.43;;;17.00;78.10;;;18.48;42.42;99138.34;5028224;28;20533;-72
2022/12/05 02:33:00;;;;;;;;;;;17.00;78.20;;;18.45;42.19;99134.28;4995922;28;20064;-72
2022/12/05 02:35:54;;;;;;;9.35;5.93;;;16.90;78.50;;;18.46;42.42;99129.59;5026020;28;20019;-72
2022/12/05 02:38:35;;;;;;;14.55;6.32;;;16.90;78.70;;;18.46;42.29;99121.34;5025110;28;20387;-72
2022/12/05 02:41:49;;;;;;;9.02;6.60;;;16.90;78.40;;;18.46;42.21;99116.66;5011956;28;20159;-72
2022/12/05 02:44:34;;;;;;;8.20;6.20;;;16.90;78.20;;;18.43;42.26;99120.06;5021872;28;20497;-72
2022/12/05 02:47:00;;;;;;;8.18;6.03;;;16.90;78.10;;;18.44;42.17;99128.00;5012347;28;20621;-72
2022/12/05 02:49:30;;;;;;;8.60;5.45;;;16.90;78.20;;;18.46;42.42;99113.13;5001508;28;20916;-72
2022/12/05 02:51:58;;;;;;;12.43;6.38;;;17.00;78.50;;;18.45;42.38;99112.31;5026190;28;20045;-72
2022/12/05 02:54:28;;;;;;;8.90;6.53;;;17.00;78.50;;;18.48;42.07;99116.34;5026114;28;20393;-72
2022/12/05 02:56:54;;;;;;;7.32;6.00;;;17.00;78.20;;;18.51;42.15;99123.97;5026734;28;20081;-72
2022/12/05 02:59:20;;;;;;;9.68;5.53;;;16.90;78.00;;;18.43;42.21;99126.34;5013262;28;20099;-72
2022/12/05 03:01:48;;;;;;;7.00;5.13;;;16.90;77.90;;;18.44;42.28;99133.47;5027657;28;20119;-72
2022/12/05 03:04:14;;;;;;;8.23;5.72;;;16.90;78.10;;;18.45;42.47;99134.28;5028906;28;20053;-72
2022/12/05 03:06:44;;;;;;;5.78;4.93;;;16.90;78.20;;;18.49;42.42;99135.25;5011947;28;20057;-72
2022/12/05 03:09:14;;;;;;;9.77;6.93;;;16.90;78.60;;;18.46;42.22;99129.59;5017090;28;20083;-72
2022/12/05 03:11:49;;;;;;;7.65;5.85;;;16.90;78.20;;;18.44;42.42;99124.41;5010273;28;20090;-72
2022/12/05 03:14:22;;;;;;;8.27;5.97;;;16.90;78.20;;;18.40;42.11;99132.50;5006006;28;20045;-72
2022/12/05 03:16:51;;;;;;;9.27;6.00;;;17.00;77.90;;;18.41;41.88;99136.84;5026976;28;20112;-72
2022/12/05 03:19:33;;;;;;;8.27;5.65;;;16.90;77.90;;;18.43;42.63;99134.59;5011497;28;20065;-72
2022/12/05 03:22:18;;;;;;;7.93;5.57;;;16.90;78.20;;;18.42;42.64;99118.44;5028772;28;20772;-72
2022/12/05 03:24:44;;;;;;;7.40;5.93;;;16.90;78.50;;;18.42;42.35;99118.44;5024494;28;20064;-72
2022/12/05 03:27:40;;;;;;;8.38;5.43;;;16.90;78.30;;;18.43;42.46;99120.06;5006942;28;20404;-72
2022/12/05 03:30:09;;;;;;;9.63;6.63;;;16.90;78.00;;;18.43;42.14;99112.63;5026560;28;20448;-72
2022/12/05 03:33:02;;;;;;;9.15;6.50;;;16.90;77.90;;;18.40;42.32;99105.03;5022882;28;20041;-72
2022/12/05 03:35:59;;;;;;;10.50;6.32;;;16.90;78.00;;;18.42;42.13;99111.00;5026135;28;20045;-72
2022/12/05 03:39:07;;;;;;;7.95;5.35;;;16.80;78.30;;;18.38;42.65;99137.47;5025377;28;20397;-72
2022/12/05 03:41:46;;;;;;;8.10;5.97;;;16.90;78.40;;;18.36;42.38;99145.22;5022756;28;20037;-72
2022/12/05 03:44:27;;;;;;;6.05;5.25;;;16.90;78.20;;;18.40;42.08;99143.47;5022322;28;20050;-72
2022/12/05 03:47:26;;;;;;;8.07;6.00;;;16.90;78.00;;;18.37;42.02;99160.59;5012195;28;20516;-72
2022/12/05 03:49:55;;;;;;;12.80;6.40;;;16.90;77.90;;;18.40;42.18;99162.69;5026299;28;20505;-72
2022/12/05 03:52:32;;;;;;;9.90;6.40;;;16.90;78.00;;;18.39;42.03;99163.84;5010490;28;20400;-72
2022/12/05 03:55:04;;;;;;;9.05;6.18;;;16.90;77.90;;;18.37;41.73;99157.03;5013500;28;20148;-72
2022/12/05 03:57:36;;;;;;;9.93;5.90;;;16.90;77.40;;;18.34;41.70;99171.38;5023199;28;20045;-72
2022/12/05 04:00:17;;;;;;;;;;;17.00;76.80;;;18.35;41.79;99162.03;5025761;28;20397;-72
2022/12/05 04:03:21;;;;;;;7.35;6.18;;;17.00;76.70;;;18.39;41.72;99144.63;5025285;28;19921;-72
2022/12/05 04:05:51;;;;;;;10.82;7.57;;;17.00;77.00;;;18.36;41.98;99142.47;5011328;28;20111;-72
2022/12/05 04:08:30;;;;;;;6.80;6.10;;;16.90;77.30;;;18.36;41.83;99139.72;5026499;28;20052;-72
2022/12/05 04:11:06;;;;;;;8.13;5.80;;;17.00;77.20;;;18.34;41.46;99136.50;5012730;28;20096;-72
2022/12/05 04:13:39;;;;;;;6.90;5.57;;;17.00;76.60;;;18.31;41.49;99150.84;5026717;28;20085;-72
2022/12/05 04:17:05;;;;;;;6.65;5.93;;;17.00;76.20;;;18.25;41.67;99157.63;5008831;28;20034;-72
2022/12/05 04:22:31;;;;;;;8.80;6.40;;;17.10;76.50;;;18.33;41.93;99147.81;5025321;28;20045;-72
2022/12/05 04:28:11;;;;;;;7.38;6.05;;;17.00;76.50;;;18.26;41.43;99142.75;5011066;28;20045;-72
2022/12/05 04:30:49;;;;;;;8.65;6.45;;;17.00;76.40;;;18.25;41.17;99143.88;5025294;28;20052;-72
2022/12/05 04:33:28;;;;;;;6.43;5.25;;;17.10;75.60;;;18.24;41.46;99131.28;5013616;28;20038;-72
2022/12/05 04:36:15;;;;;;;6.78;5.53;;;17.10;75.50;;;18.33;41.31;99132.13;5014258;28;20045;-72
2022/12/05 04:38:55;;;;;;;6.43;5.65;;;17.10;76.20;;;18.24;41.84;99145.00;5028652;28;20048;-72
2022/12/05 04:41:27;;;;;;;8.55;6.60;;;17.00;76.60;;;18.26;41.44;99137.25;4998657;28;20038;-73
2022/12/05 04:43:53;;;;;;;;;;;16.90;76.50;;;18.25;40.97;99130.16;5016215;28;20084;-73
2022/12/05 04:46:19;;;;;;;10.13;6.07;;;16.90;75.90;;;18.21;41.29;99129.16;5027372;28;19925;-73
2022/12/05 04:48:53;;;;;;;6.25;5.65;;;17.00;75.40;;;18.19;41.24;99132.25;5013053;28;20045;-73
2022/12/05 04:51:23;;;;;;;8.10;6.18;;;17.10;75.50;;;18.21;41.20;99129.16;5014152;28;20041;-73
2022/12/05 04:53:56;;;;;;;5.97;5.38;;;17.10;75.50;;;18.22;41.39;99122.56;5015855;28;20479;-73
2022/12/05 04:56:25;;;;;;;6.10;5.50;;;17.00;76.20;;;18.27;41.51;99121.59;5013810;28;20030;-73
2022/12/05 04:58:51;;;;;;;7.72;6.10;;;16.90;76.50;;;18.26;41.18;99120.78;5015866;28;20053;-73
2022/12/05 05:01:34;;;;;;;9.25;5.90;;;17.00;75.60;;;18.23;41.13;99110.44;5028588;28;20037;-72
2022/12/05 05:04:18;;;;;;;7.40;6.70;;;17.10;75.50;;;18.20;41.04;99109.13;5032998;28;20052;-73
2022/12/05 05:06:44;;;;;;;6.22;5.57;;;17.10;75.20;;;18.22;41.09;99100.59;5018116;28;20053;-73
2022/12/05 05:09:11;;;;;;;6.43;4.90;;;17.00;75.20;;;18.21;41.05;99101.72;5025893;28;20045;-73
2022/12/05 05:11:37;;;;;;;6.88;5.25;;;16.90;75.50;;;18.15;41.47;99106.53;5026991;28;20049;-72
2022/12/05 05:14:03;;;;;;;8.25;6.72;;;16.90;76.10;;;18.17;41.36;99100.75;5010953;28;20041;-71
2022/12/05 05:16:40;;;;;;;7.90;6.18;;;16.90;75.90;;;18.19;41.18;99098.47;5012924;28;20041;-71
2022/12/05 05:19:06;;;;;;;7.13;6.20;;;17.00;75.40;;;18.19;40.87;99103.97;5031571;28;20045;-73
2022/12/05 05:21:39;;;;;;;6.78;5.80;;;17.10;75.50;;;18.18;40.70;99110.59;5012594;28;20041;-73
2022/12/05 05:24:06;;;;;;;7.53;6.15;;;17.10;74.80;;;18.19;40.79;99112.19;5031765;28;20477;-72
2022/12/05 05:26:34;;;;;;;7.50;5.70;;;17.00;75.40;;;18.13;41.45;99111.53;5013120;28;20041;-72
2022/12/05 05:29:00;;;;;;;6.57;5.25;;;16.90;75.50;;;18.13;41.52;99100.53;4994912;28;20405;-72
2022/12/05 05:31:26;;;;;;;8.55;6.43;;;16.90;75.90;;;18.20;40.88;99102.84;5010959;28;20045;-72
2022/12/05 05:33:54;;;;;;;8.10;5.38;;;16.90;75.30;;;18.15;40.74;99097.50;5026750;28;20120;-72
2022/12/05 05:36:21;;;;;;;7.50;5.70;;;17.00;75.20;;;18.14;40.90;99098.59;5028245;28;20044;-72
2022/12/05 05:38:49;;;;;;;6.25;4.93;;;17.10;74.70;;;18.15;40.67;99089.25;5013158;28;20116;-72
2022/12/05 05:41:20;;;;;;;8.80;6.22;;;17.10;74.50;;;18.17;40.88;99095.25;5008993;28;20451;-72
2022/12/05 05:43:46;;;;;;;8.15;6.13;;;16.90;75.10;;;18.11;41.37;99085.50;5029105;28;20052;-72
2022/12/05 05:46:13;;;;;;;8.85;6.60;;;16.90;75.50;;;18.16;40.88;99088.13;5028876;28;20049;-72
2022/12/05 05:48:39;;;;;;;7.75;5.45;;;16.80;75.40;;;18.12;40.94;99087.16;5026996;28;20048;-72
2022/12/05 05:51:06;;;;;;;7.75;6.20;;;16.90;75.30;;;18.10;40.85;99089.41;5010774;28;20052;-72
2022/12/05 05:53:32;;;;;;;5.90;5.30;;;17.00;75.00;;;18.16;40.94;99088.13;5028045;28;20034;-72
2022/12/05 05:56:07;;;;;;;6.53;5.70;;;16.90;75.00;;;18.14;40.63;99093.94;5030883;28;20128;-72
2022/12/05 05:58:38;;;;;;;8.55;6.30;;;16.80;75.10;;;18.08;40.90;99089.69;5029891;28;20084;-72
2022/12/05 06:01:09;;;;;;;7.28;5.65;;;16.70;75.10;;;18.09;40.76;99093.25;5029839;28;20456;-72
2022/12/05 06:03:35;;;;;;;7.50;6.50;;;16.70;75.10;;;18.10;40.99;99087.47;5028649;28;20056;-72
2022/12/05 06:06:04;;;;;;;6.32;5.20;;;16.70;75.90;;;18.08;41.08;99081.47;5028050;28;20065;-72
2022/12/05 06:08:33;;;;;;;5.97;4.97;;;16.70;75.90;;;18.11;41.22;99091.00;5028878;28;20596;-72
2022/12/05 06:11:05;;;;;;;6.80;5.68;;;16.70;76.10;;;18.07;41.03;99090.84;5029066;28;20044;-72
2022/12/05 06:13:31;;;;;;;6.23;5.07;;;16.70;75.70;;;18.07;41.06;99098.28;4996441;28;20136;-72
2022/12/05 06:15:57;;;;;;;6.70;5.55;;;16.70;75.70;;;18.00;41.43;99091.28;5025445;28;20047;-72
2022/12/05 06:18:23;;;;;;;7.10;5.90;;;16.70;75.70;;;18.08;41.20;99097.13;5026318;28;20034;-72
2022/12/05 06:20:56;;;;;;;7.05;5.55;;;16.60;76.10;;;18.04;41.35;99098.88;5012791;28;20528;-72
2022/12/05 06:23:23;;;;;;;6.95;5.10;;;16.70;76.40;;;18.03;41.50;99105.50;5030534;28;20409;-72
2022/12/05 06:25:51;;;;;;;6.93;5.07;;;16.70;76.50;;;18.07;41.40;99109.25;5030328;28;20049;-73
2022/12/05 06:28:17;;;;;;;7.18;5.57;;;16.60;76.20;;;18.01;41.50;99108.56;5044030;28;20073;-71
2022/12/05 06:30:43;;;;;;;6.05;5.32;;;16.70;76.20;;;17.95;41.47;99107.09;5028150;28;20045;-72
2022/12/05 06:33:10;;;;;;;7.15;5.80;;;16.60;76.20;;;17.99;41.37;99106.16;5023360;28;20126;-71
2022/12/05 06:35:36;;;;;;;6.72;5.47;;;16.60;76.30;;;18.02;41.81;99098.41;5012864;28;20087;-71
2022/12/05 06:38:02;;;;;;;7.53;5.55;;;16.60;76.90;;;18.00;42.10;99124.22;5010267;28;20041;-71
2022/12/05 06:40:28;;;;;;;6.35;5.10;;;16.60;77.30;;;18.00;42.09;99124.22;5004988;28;20065;-71
2022/12/05 06:42:54;;;;;;;6.97;5.93;;;16.50;77.30;;;18.00;41.56;99118.72;5023909;28;20060;-71
2022/12/05 06:45:20;;;;;;;8.68;6.00;;;16.60;76.80;;;17.94;41.73;99116.44;5025311;28;20072;-71
2022/12/05 06:47:46;;;;;;;5.78;5.10;;;16.50;76.80;;;17.93;41.87;99121.09;5024883;28;20041;-71
2022/12/05 06:50:12;;;;;;;7.05;5.32;;;16.50;76.80;;;18.00;41.42;99126.16;5023624;28;20353;-71
2022/12/05 06:52:38;;;;;;;6.95;5.78;;;16.50;77.60;;;17.96;42.04;99123.25;5018546;28;20045;-71
2022/12/05 06:55:05;;;;;;;7.18;5.78;;;16.50;77.20;;;17.98;42.42;99114.69;5006234;28;20042;-71
2022/12/05 06:57:31;;;;;;;9.23;5.55;;;16.50;77.60;;;17.97;41.68;99115.81;5019984;28;20118;-71
2022/12/05 07:01:37;;;;;;;5.85;5.25;;;16.50;77.10;;;17.96;41.99;99109.53;5020412;28;20099;-71
2022/12/05 07:02:46;;;;;;;7.65;6.10;;;16.50;77.20;;;17.94;41.74;99125.50;5038467;28;20125;-71
2022/12/05 07:05:13;;;;;;;8.07;5.20;;;16.50;77.20;;;17.93;41.63;99112.06;5024299;28;20045;-71
2022/12/05 07:07:39;;;;;;;6.22;5.32;;;16.50;77.10;;;17.96;42.26;99108.69;5007977;28;20155;-71
2022/12/05 07:10:06;;;;;;;6.75;5.03;;;16.50;77.60;;;18.00;42.07;99117.94;5024533;28;20043;-71
2022/12/05 07:12:32;;;;;;;5.72;5.13;;;16.50;77.80;;;17.98;42.34;99110.00;5026633;28;20073;-71
2022/12/05 07:14:59;;;;;;;6.68;5.60;;;16.50;78.00;;;18.00;41.92;99107.75;5020007;28;20394;-71
2022/12/05 07:17:25;;;;;;;7.03;5.25;;;16.40;77.40;;;17.97;41.83;99102.91;5024424;28;20401;-71
2022/12/05 07:19:51;;;;;;;5.43;4.90;;;16.40;77.20;;;17.92;42.17;99105.78;5020642;28;20065;-71
2022/12/05 07:22:19;;;;;;;6.47;4.93;;;16.50;77.20;;;17.94;41.92;99114.50;5018128;28;20132;-71
2022/12/05 07:24:45;;;;;;;7.47;5.38;;;16.50;77.10;;;17.96;42.28;99104.03;4988758;28;20398;-72
2022/12/05 07:27:12;;;;;;;7.93;5.55;;;16.40;77.70;;;17.97;42.11;99110.31;5005284;28;20555;-71
2022/12/05 07:29:38;;;;;;;6.20;5.25;;;16.40;78.00;;;17.96;42.06;99111.44;5008643;28;20497;-71
2022/12/05 07:32:04;;;;;;;5.55;4.38;;;16.40;77.70;;;17.94;41.90;99108.22;5026970;28;20045;-71
2022/12/05 07:34:30;;;;;;;8.27;5.35;;;16.40;77.40;;;17.90;42.10;99108.03;5027108;28;20057;-71
2022/12/05 07:36:56;;;;;;;5.63;4.38;;;16.40;77.30;;;17.87;42.11;99108.66;5018670;28;20042;-71
2022/12/05 07:39:22;;;;;;;11.85;5.10;;;16.40;77.30;;;17.96;42.26;99112.28;5019035;28;20053;-71
2022/12/05 07:41:48;;;;;;;6.28;4.72;;;16.40;77.60;;;17.97;42.21;99113.88;4988251;28;20048;-71
2022/12/05 07:44:14;;;;;;;6.15;4.88;;;16.40;77.80;;;18.04;42.24;99113.44;5019587;28;20065;-71
2022/12/05 07:46:40;;;;;;;6.47;5.05;;;16.40;78.10;;;17.91;42.17;99115.16;5020693;28;20045;-71
2022/12/05 07:49:07;;;;;;;7.95;5.28;;;16.50;77.70;;;17.95;42.14;99120.81;5019668;28;20049;-71
2022/12/05 07:51:34;;;;;;;6.38;4.75;;;16.40;77.50;;;17.91;42.02;99120.63;5017178;28;20052;-71
2022/12/05 07:54:00;;;;;;;7.38;5.72;;;16.40;77.40;;;17.89;42.02;99111.91;5021563;28;20037;-71
2022/12/05 07:56:26;;;;;;;7.43;5.30;;;16.40;77.30;;;17.93;42.36;99120.31;5004033;28;20567;-71
2022/12/05 07:58:53;;;;;;;6.35;4.05;;;16.40;77.70;;;17.92;42.14;99110.47;5006368;28;20049;-71
2022/12/05 08:01:21;;;;;;;5.47;4.40;;;16.40;78.10;;;17.97;42.32;99113.88;5017321;28;20046;-71
2022/12/05 08:03:48;;;;;;;7.95;4.95;;;16.40;78.30;;;17.96;41.96;99120.50;5022150;28;20037;-71
2022/12/05 08:06:17;;;;;;;6.68;5.32;;;16.40;77.60;;;17.90;42.21;99119.00;5023585;28;20757;-71
2022/12/05 08:08:44;;;;;;;5.05;4.40;;;16.40;77.60;;;17.94;41.82;99110.97;5020557;28;20051;-71
2022/12/05 08:11:15;;;;;;;6.10;5.20;;;16.40;77.60;;;17.92;41.87;99122.25;5021309;28;20046;-71
2022/12/05 08:13:42;;;;;;;6.45;4.85;;;16.40;77.50;;;17.98;42.33;99120.97;5022727;28;20121;-71
2022/12/05 08:16:20;;;;;;;5.68;4.90;;;16.40;78.10;;;17.99;42.53;99119.06;5006064;28;20037;-71
2022/12/05 08:18:46;;;;;;;8.55;5.28;;;16.40;78.10;;;18.00;42.10;99113.25;5019987;28;20038;-71
2022/12/05 08:21:16;;;;;;;6.43;5.03;;;16.40;77.70;;;17.97;42.27;99113.06;5023042;28;20111;-71
2022/12/05 08:23:42;;;;;;;8.48;5.25;;;16.40;77.80;;;17.90;42.05;99119.00;5026368;28;20041;-71
2022/12/05 08:26:14;;;;;;;6.53;5.10;;;16.30;77.60;;;17.94;42.15;99117.25;5025531;28;20045;-71
2022/12/05 08:28:41;;;;;;;6.25;5.18;;;16.40;77.50;;;17.92;42.11;99119.50;5020632;28;20397;-71
2022/12/05 08:31:15;;;;;;;6.22;5.32;;;16.40;77.70;;;17.98;42.00;99125.66;5021334;28;20045;-71
2022/12/05 08:33:42;;;;;;;6.72;5.13;;;16.40;78.10;;;18.02;42.28;99121.19;5024801;28;20052;-71
2022/12/05 08:36:11;;;;;;;6.80;5.30;;;16.40;78.30;;;18.00;42.02;99129.72;5008464;28;20475;-71
2022/12/05 08:38:37;;;;;;;8.30;5.20;;;16.40;77.70;;;17.97;42.04;99130.34;5022132;28;20119;-71
2022/12/05 08:41:08;;;;;;;7.13;5.40;;;16.40;77.70;;;17.98;41.69;99126.47;5023952;28;20416;-71
2022/12/05 08:43:34;;;;;;;5.70;4.93;;;16.40;77.40;;;18.00;41.56;99124.22;5022341;28;20042;-71
2022/12/05 08:46:00;;;;;;;8.43;5.13;;;16.40;77.40;;;18.05;42.07;99130.72;5007069;28;20042;-71
2022/12/05 08:48:27;;;;;;;6.95;4.72;;;16.50;78.00;;;17.99;42.39;99128.09;5025830;28;20542;-71
2022/12/05 08:50:53;;;;;;;6.22;4.72;;;16.40;78.10;;;17.98;42.18;99125.66;5023333;28;20065;-71
2022/12/05 08:53:20;;;;;;;5.40;4.60;;;16.40;77.70;;;17.97;42.00;99124.84;5023298;28;20123;-71
2022/12/05 08:55:46;;;;;;;5.43;4.93;;;16.40;77.70;;;17.98;41.97;99123.72;5010519;28;20507;-71
2022/12/05 08:58:12;;;;;;;5.65;4.95;;;16.40;77.70;;;17.99;41.92;99125.34;5023338;28;20045;-71
2022/12/05 09:00:39;;;;;;;5.80;5.05;;;16.40;77.70;;;18.02;42.18;99123.91;5041270;28;20385;-71
2022/12/05 09:03:05;;;;;;;4.90;4.38;;;16.40;78.00;;;18.00;42.40;99115.97;5008045;28;20073;-71
2022/12/05 09:05:32;;;;;;;7.72;5.07;;;16.50;78.20;;;17.99;42.46;99124.56;5008901;28;20041;-71
2022/12/05 09:07:58;;;;;;;5.90;5.10;;;16.50;78.10;;;18.00;42.05;99126.97;4992104;28;20053;-71
2022/12/05 09:10:25;;;;;;;8.35;5.43;;;16.40;77.70;;;18.04;42.03;99123.59;5025785;28;20401;-72
2022/12/05 09:12:51;;;;;;;7.85;4.82;;;16.40;77.60;;;18.00;41.75;99121.47;5025890;28;20056;-71
2022/12/05 09:15:17;;;;;;;6.57;4.65;;;16.40;77.60;;;18.02;41.90;99114.88;5020687;28;20138;-71
2022/12/05 09:17:44;;;;;;;7.07;5.03;;;16.40;77.60;;;18.07;42.03;99112.81;5027479;28;20116;-71
2022/12/05 09:20:12;;;;;;;6.38;5.55;;;16.50;78.50;;;18.07;42.04;99114.75;5028517;28;20239;-71
2022/12/05 09:22:39;;;;;;;5.82;4.75;;;16.50;77.90;;;18.04;41.84;99101.63;5028152;28;20045;-71
2022/12/05 09:25:06;;;;;;;6.18;4.90;;;16.50;77.80;;;18.03;42.21;99100.03;5011830;28;20050;-71
2022/12/05 09:27:32;;;;;;;5.90;5.10;;;16.50;77.80;;;18.06;41.99;99088.41;5028210;28;20503;-71
2022/12/05 09:29:58;;;;;;;6.00;5.32;;;16.50;77.60;;;18.08;41.75;99105.38;5030679;28;20471;-71
2022/12/05 09:32:25;;;;;;;6.10;5.50;;;16.50;77.50;;;18.02;42.10;99101.16;5029828;28;20111;-71
2022/12/05 09:34:51;;;;;;;6.25;5.25;;;16.40;78.00;;;18.07;42.00;99092.78;5031580;28;20061;-71
2022/12/05 09:37:17;;;;;;;5.88;5.15;;;16.50;78.30;;;18.10;42.22;99081.97;5027513;28;20418;-71
2022/12/05 09:39:43;;;;;;;6.15;5.32;;;16.60;78.20;;;18.08;42.19;99080.66;5029201;28;20096;-71
2022/12/05 09:42:53;;;;;;;5.88;4.30;;;16.50;77.70;;;18.06;42.20;99080.16;5029684;28;20141;-71
2022/12/05 09:45:26;;;;;;;9.75;5.88;;;16.50;77.80;;;18.05;42.01;99079.38;5028196;28;20049;-71
2022/12/05 09:48:06;;;;;;;5.88;5.00;;;16.50;77.70;;;18.05;42.16;99073.06;5021859;28;20084;-71
2022/12/05 09:51:03;;;;;;;6.63;5.53;;;16.50;77.70;;;18.06;42.01;99071.94;5024713;28;20405;-71
2022/12/05 09:53:37;;;;;;;6.95;5.22;;;16.50;77.70;;;18.05;41.79;99075.81;5026523;28;20386;-71
2022/12/05 09:56:15;;;;;;;7.40;4.65;;;16.50;77.50;;;18.02;42.03;99071.75;5008420;28;20099;-71
2022/12/05 09:58:48;;;;;;;5.80;4.75;;;16.60;77.40;;;18.06;41.85;99067.25;5022039;28;20044;-71
2022/12/05 10:01:40;;;;;;;9.38;6.13;;;16.50;77.30;;;18.06;41.87;99063.69;5027296;28;20069;-71
2022/12/05 10:04:45;;;;;;;7.07;5.25;;;16.60;77.30;;;18.05;41.90;99060.16;5026450;28;20408;-72
2022/12/05 10:07:36;;;;;;;7.82;5.70;;;16.60;77.30;;;18.08;41.91;99061.44;5026457;28;20136;-72
2022/12/05 10:10:37;;;;;;;10.25;5.82;;;16.60;77.40;;;18.09;42.06;99047.41;5019137;28;20096;-72
2022/12/05 10:13:15;;;;;;;8.57;5.50;;;16.60;77.40;;;18.06;41.94;99055.47;5024378;28;20050;-71
2022/12/05 10:16:06;;;;;;;6.97;5.32;;;16.60;77.30;;;18.06;41.83;99064.50;5027745;28;20088;-71
2022/12/05 10:18:46;;;;;;;5.13;4.57;;;16.60;77.30;;;18.07;41.97;99054.34;5021383;28;20048;-71
2022/12/05 10:21:48;;;;;;;9.00;5.30;;;16.60;77.30;;;18.05;41.95;99049.16;5020408;28;20128;-71
2022/12/05 10:24:36;;;;;;;6.57;5.75;;;16.60;77.30;;;18.10;41.99;99040.00;5013275;28;20061;-71
2022/12/05 10:27:09;;;;;;;7.30;5.22;;;16.60;77.30;;;18.05;42.18;99037.38;5026189;28;20049;-71
2022/12/05 10:29:41;;;;;;;5.63;4.82;;;16.70;77.50;;;18.05;42.14;99046.44;5024823;28;20045;-71
2022/12/05 10:32:22;;;;;;;6.18;5.03;;;16.70;77.40;;;18.05;41.84;99049.16;5024989;28;20048;-71
2022/12/05 10:34:48;;;;;;;6.68;5.20;;;16.60;77.20;;;18.09;41.91;99043.84;5022581;28;20045;-71
2022/12/05 10:37:18;;;;;;;7.60;5.20;;;16.60;77.00;;;18.09;41.80;99050.16;5024575;28;20456;-71
2022/12/05 10:39:48;;;;;;;21.70;6.35;;;16.60;77.10;;;18.11;41.99;99031.41;5026336;28;20444;-71
2022/12/05 10:42:27;;;;;;;5.93;4.63;;;16.60;77.50;;;18.16;42.02;99017.53;5025927;28;20517;-71
2022/12/05 10:45:01;;;;;;;8.00;5.35;;;16.70;77.50;;;18.07;41.82;99011.25;5008953;28;20073;-71